4OMNE EIKY-EIKY

Flight info

Callsign 4OMNE
Flight time 0h 35m
Altitude 3000
Route VFR
Aircraft DA40/L-SBDFGRY/S

Departure

Time 2026-05-07 20:23
Airport Kerry Airport (EIKY)

Arrival

Time 2026-05-07 20:59
Airport Kerry Airport (EIKY)
Time Latitude Longitude Altitude Speed Heading
2026-05-07 19:58 52.18070 -9.53789 92 ft 0 kts 53°
2026-05-07 20:16 52.18078 -9.53760 96 ft 7 kts 78°
2026-05-07 20:16 52.18045 -9.53659 96 ft 13 kts 149°
2026-05-07 20:16 52.18014 -9.53636 97 ft 0 kts 148°
2026-05-07 20:16 52.17963 -9.53604 96 ft 11 kts 169°
2026-05-07 20:17 52.17935 -9.53592 96 ft 0 kts 153°
2026-05-07 20:18 52.17908 -9.53572 99 ft 14 kts 160°
2026-05-07 20:18 52.17871 -9.53429 99 ft 24 kts 71°
2026-05-07 20:19 52.17956 -9.53006 101 ft 47 kts 71°
2026-05-07 20:19 52.18063 -9.52486 105 ft 43 kts 71°
2026-05-07 20:19 52.18151 -9.52067 109 ft 37 kts 71°
2026-05-07 20:19 52.18233 -9.51681 115 ft 32 kts 71°
2026-05-07 20:20 52.18295 -9.51381 120 ft 25 kts 72°
2026-05-07 20:20 52.18347 -9.51146 122 ft 20 kts 65°
2026-05-07 20:20 52.18390 -9.51060 122 ft 9 kts 70°
2026-05-07 20:20 52.18370 -9.51004 122 ft 4 kts 206°
2026-05-07 20:21 52.18364 -9.51050 122 ft 1 kts 250°
2026-05-07 20:22 52.18314 -9.51289 122 ft 52 kts 251°
2026-05-07 20:22 52.18167 -9.52024 250 ft 75 kts 256°
2026-05-07 20:23 52.18021 -9.52844 572 ft 71 kts 252°
2026-05-07 20:23 52.17889 -9.53597 885 ft 68 kts 255°
2026-05-07 20:23 52.17725 -9.54324 1130 ft 67 kts 246°
2026-05-07 20:23 52.17400 -9.54814 1356 ft 67 kts 186°
2026-05-07 20:24 52.16984 -9.54349 1562 ft 79 kts 136°
2026-05-07 20:24 52.16593 -9.53715 1792 ft 79 kts 150°
2026-05-07 20:24 52.16231 -9.52992 1986 ft 98 kts 113°
2026-05-07 20:24 52.16023 -9.51837 2044 ft 117 kts 109°
2026-05-07 20:25 52.15789 -9.50485 2031 ft 128 kts 109°
2026-05-07 20:25 52.15565 -9.49043 2053 ft 132 kts 108°
2026-05-07 20:25 52.15352 -9.47584 2094 ft 134 kts 109°
2026-05-07 20:25 52.15065 -9.46093 1986 ft 143 kts 111°
2026-05-07 20:26 52.14740 -9.44580 2045 ft 139 kts 113°
2026-05-07 20:26 52.14427 -9.43112 2126 ft 137 kts 113°
2026-05-07 20:26 52.14085 -9.41633 2064 ft 141 kts 113°
2026-05-07 20:26 52.13708 -9.40136 2000 ft 141 kts 119°
2026-05-07 20:27 52.13284 -9.38722 2007 ft 140 kts 120°
2026-05-07 20:27 52.12871 -9.37289 2010 ft 140 kts 120°
2026-05-07 20:27 52.12457 -9.35849 2025 ft 139 kts 117°
2026-05-07 20:27 52.12095 -9.34389 2025 ft 141 kts 116°
2026-05-07 20:28 52.11702 -9.32939 2036 ft 140 kts 124°
2026-05-07 20:28 52.11205 -9.31569 2055 ft 140 kts 124°
2026-05-07 20:28 52.10708 -9.30217 2035 ft 143 kts 124°
2026-05-07 20:28 52.10215 -9.28800 2061 ft 139 kts 123°
2026-05-07 20:29 52.09773 -9.27415 2041 ft 141 kts 117°
2026-05-07 20:29 52.09393 -9.25930 1995 ft 143 kts 110°
2026-05-07 20:29 52.09187 -9.24359 2047 ft 140 kts 103°
2026-05-07 20:29 52.09035 -9.22775 1999 ft 144 kts 101°
2026-05-07 20:30 52.08936 -9.21197 2059 ft 140 kts 95°
2026-05-07 20:30 52.08930 -9.19603 2075 ft 141 kts 90°
2026-05-07 20:30 52.09073 -9.18024 2035 ft 145 kts 56°
2026-05-07 20:30 52.09481 -9.16677 2103 ft 136 kts 102°
2026-05-07 20:31 52.09022 -9.15349 2175 ft 126 kts 127°
2026-05-07 20:31 52.08628 -9.14256 2623 ft 103 kts 123°
2026-05-07 20:31 52.08273 -9.13641 3177 ft 40 kts 201°
2026-05-07 20:31 52.08070 -9.14285 2625 ft 88 kts 251°
2026-05-07 20:32 52.07771 -9.15089 3012 ft 67 kts 224°
2026-05-07 20:32 52.07389 -9.15276 3380 ft 54 kts 139°
2026-05-07 20:32 52.07325 -9.14304 2684 ft 111 kts 92°
2026-05-07 20:32 52.07544 -9.13568 3300 ft 60 kts
2026-05-07 20:33 52.08209 -9.13878 2562 ft 99 kts 338°
2026-05-07 20:33 52.08647 -9.13867 3056 ft 62 kts 22°
2026-05-07 20:33 52.09396 -9.14043 2589 ft 109 kts 318°
2026-05-07 20:33 52.09639 -9.14963 2486 ft 80 kts 270°
2026-05-07 20:34 52.09616 -9.15783 2392 ft 68 kts 251°
2026-05-07 20:34 52.09277 -9.16323 2213 ft 65 kts 214°
2026-05-07 20:34 52.08853 -9.16682 2040 ft 67 kts 200°
2026-05-07 20:34 52.08397 -9.16477 1865 ft 79 kts 146°
2026-05-07 20:35 52.08163 -9.15682 1705 ft 85 kts 98°
2026-05-07 20:35 52.08345 -9.14793 1512 ft 85 kts 32°
2026-05-07 20:35 52.08685 -9.15212 1299 ft 77 kts 238°
2026-05-07 20:35 52.08415 -9.15881 1205 ft 69 kts 272°
2026-05-07 20:36 52.08780 -9.16316 720 ft 97 kts
2026-05-07 20:36 52.09191 -9.16684 610 ft 81 kts 310°
2026-05-07 20:36 52.09483 -9.17324 618 ft 72 kts 299°
2026-05-07 20:36 52.09650 -9.18033 835 ft 80 kts 251°
2026-05-07 20:37 52.09189 -9.18146 1154 ft 73 kts 154°
2026-05-07 20:37 52.08749 -9.17741 1490 ft 75 kts 158°
2026-05-07 20:37 52.08311 -9.17339 1829 ft 73 kts 161°
2026-05-07 20:37 52.07828 -9.17019 2076 ft 74 kts 160°
2026-05-07 20:38 52.07387 -9.16615 2356 ft 72 kts 155°
2026-05-07 20:38 52.06958 -9.16129 2514 ft 76 kts 149°
2026-05-07 20:38 52.06574 -9.15560 2352 ft 76 kts 143°
2026-05-07 20:38 52.06387 -9.14743 2145 ft 88 kts 83°
2026-05-07 20:39 52.06612 -9.13895 1999 ft 84 kts 54°
2026-05-07 20:39 52.06944 -9.13137 1864 ft 82 kts 51°
2026-05-07 20:39 52.07370 -9.12615 1675 ft 79 kts 353°
2026-05-07 20:39 52.07700 -9.13188 1465 ft 70 kts 271°
2026-05-07 20:40 52.07723 -9.13984 1083 ft 77 kts 289°
2026-05-07 20:40 52.07760 -9.14795 815 ft 69 kts 290°
2026-05-07 20:40 52.07763 -9.15615 646 ft 75 kts 259°
2026-05-07 20:40 52.07683 -9.16459 962 ft 72 kts 258°
2026-05-07 20:41 52.07602 -9.17227 1280 ft 69 kts 256°
2026-05-07 20:41 52.07350 -9.17842 1549 ft 74 kts 208°
2026-05-07 20:41 52.06910 -9.17517 1797 ft 89 kts 103°
2026-05-07 20:41 52.07378 -9.16678 1737 ft 110 kts 27°
2026-05-07 20:42 52.08026 -9.16353 2095 ft 99 kts
2026-05-07 20:42 52.08634 -9.15763 2347 ft 102 kts 46°
2026-05-07 20:42 52.09114 -9.14893 2573 ft 107 kts 47°
2026-05-07 20:42 52.09509 -9.13843 2747 ft 114 kts 82°
2026-05-07 20:43 52.09608 -9.12611 3032 ft 110 kts 76°
2026-05-07 20:43 52.09855 -9.11365 3095 ft 121 kts 71°
2026-05-07 20:43 52.10170 -9.09995 3044 ft 133 kts 71°
2026-05-07 20:43 52.10501 -9.08525 3030 ft 139 kts 70°
2026-05-07 20:44 52.10846 -9.07047 3091 ft 139 kts 69°
2026-05-07 20:44 52.11210 -9.05521 3005 ft 150 kts 71°
2026-05-07 20:44 52.11585 -9.03947 3006 ft 149 kts 71°
2026-05-07 20:44 52.11831 -9.02311 3010 ft 147 kts 83°
2026-05-07 20:45 52.12055 -9.00726 3076 ft 145 kts 70°
2026-05-07 20:45 52.12461 -8.99152 2984 ft 150 kts 67°
2026-05-07 20:45 52.12881 -8.97680 3025 ft 149 kts 63°
2026-05-07 20:45 52.13379 -8.96182 2986 ft 149 kts 61°
2026-05-07 20:46 52.13941 -8.94787 3002 ft 148 kts 53°
2026-05-07 20:46 52.14575 -8.93506 3051 ft 145 kts 49°
2026-05-07 20:46 52.15265 -8.92291 3034 ft 145 kts 39°
2026-05-07 20:46 52.16123 -8.91614 3202 ft 132 kts
2026-05-07 20:47 52.17043 -8.91622 3278 ft 130 kts 353°
2026-05-07 20:47 52.17851 -8.91685 3700 ft 108 kts 352°
2026-05-07 20:47 52.18585 -8.91778 3942 ft 110 kts 347°
2026-05-07 20:47 52.19271 -8.92209 4206 ft 102 kts 307°
2026-05-07 20:48 52.19571 -8.93199 4488 ft 93 kts 286°
2026-05-07 20:48 52.19793 -8.94161 4787 ft 89 kts 282°
2026-05-07 20:48 52.20023 -8.95111 4991 ft 97 kts 287°
2026-05-07 20:48 52.20330 -8.96225 4989 ft 116 kts 290°
2026-05-07 20:49 52.20694 -8.97483 4984 ft 127 kts 291°
2026-05-07 20:49 52.21073 -8.98773 4991 ft 126 kts 291°
2026-05-07 20:49 52.21449 -9.00076 4984 ft 128 kts 291°
2026-05-07 20:49 52.21827 -9.01374 4984 ft 129 kts 291°
2026-05-07 20:50 52.22218 -9.02717 4982 ft 130 kts 291°
2026-05-07 20:50 52.22599 -9.04031 4986 ft 130 kts 291°
2026-05-07 20:50 52.22979 -9.05371 4980 ft 131 kts 290°
2026-05-07 20:50 52.23359 -9.06719 4987 ft 131 kts 290°
2026-05-07 20:51 52.23742 -9.08076 4983 ft 132 kts 290°
2026-05-07 20:51 52.24127 -9.09439 4980 ft 132 kts 290°
2026-05-07 20:51 52.24510 -9.10790 4977 ft 131 kts 291°
2026-05-07 20:51 52.24916 -9.12126 4982 ft 132 kts 292°
2026-05-07 20:52 52.25326 -9.13460 4980 ft 131 kts 292°
2026-05-07 20:52 52.25712 -9.14809 4973 ft 131 kts 281°
2026-05-07 20:52 52.25613 -9.16231 4981 ft 127 kts 250°
2026-05-07 20:52 52.25331 -9.17587 4980 ft 126 kts 249°
2026-05-07 20:53 52.25047 -9.18958 4923 ft 129 kts 249°
2026-05-07 20:53 52.24751 -9.20380 4748 ft 135 kts 250°
2026-05-07 20:53 52.24445 -9.21858 4525 ft 140 kts 250°
2026-05-07 20:53 52.24127 -9.23382 4296 ft 142 kts 250°
2026-05-07 20:54 52.23814 -9.24893 4068 ft 143 kts 250°
2026-05-07 20:54 52.23491 -9.26441 3836 ft 144 kts 250°
2026-05-07 20:54 52.23171 -9.27983 3609 ft 143 kts 250°
2026-05-07 20:54 52.22848 -9.29531 3380 ft 144 kts 250°
2026-05-07 20:55 52.22526 -9.31084 3148 ft 144 kts 250°
2026-05-07 20:55 52.22202 -9.32637 2920 ft 145 kts 250°
2026-05-07 20:55 52.21875 -9.34213 2673 ft 147 kts 251°
2026-05-07 20:55 52.21544 -9.35796 2448 ft 148 kts 250°
2026-05-07 20:56 52.21325 -9.36849 2284 ft 148 kts 250°
2026-05-07 20:56 52.20996 -9.38434 2057 ft 147 kts 251°
2026-05-07 20:56 52.20663 -9.40026 1810 ft 148 kts 251°
2026-05-07 20:56 52.20338 -9.41619 1533 ft 148 kts 250°
2026-05-07 20:57 52.20012 -9.43177 1357 ft 143 kts 250°
2026-05-07 20:57 52.19682 -9.44726 1128 ft 145 kts 251°
2026-05-07 20:57 52.19360 -9.46260 891 ft 140 kts 250°
2026-05-07 20:57 52.19085 -9.47628 662 ft 113 kts 251°
2026-05-07 20:58 52.18855 -9.48723 509 ft 92 kts 250°
2026-05-07 20:58 52.18678 -9.49635 368 ft 80 kts 250°
2026-05-07 20:58 52.18488 -9.50471 255 ft 77 kts 250°
2026-05-07 20:58 52.18321 -9.51260 152 ft 71 kts 249°
2026-05-07 20:59 52.18185 -9.51905 111 ft 48 kts 252°
2026-05-07 20:59 52.18106 -9.52267 106 ft 19 kts 255°
2026-05-07 20:59 52.18056 -9.52507 105 ft 27 kts 251°
2026-05-07 20:59 52.17972 -9.52921 102 ft 47 kts 249°
2026-05-07 21:00 52.17870 -9.53419 97 ft 31 kts 250°
2026-05-07 21:00 52.17882 -9.53568 96 ft 14 kts 337°
2026-05-07 21:00 52.17943 -9.53598 96 ft 0 kts 345°
2026-05-07 21:02 52.17977 -9.53617 94 ft 13 kts 335°
2026-05-07 21:02 52.18057 -9.53685 98 ft 10 kts 312°
2026-05-07 21:02 52.18067 -9.53717 97 ft 0 kts 272°